sensor_id;sensor_type;location;lat;lon;timestamp;P1;durP1;ratioP1;P2;durP2;ratioP2
64375;SDS011;50700;55.416;12.952;2023-05-14T00:02:22;6.95;;;3.80;;
64375;SDS011;50700;55.416;12.952;2023-05-14T00:04:48;6.30;;;4.00;;
64375;SDS011;50700;55.416;12.952;2023-05-14T00:07:14;6.82;;;4.10;;
64375;SDS011;50700;55.416;12.952;2023-05-14T00:09:40;4.45;;;3.72;;
64375;SDS011;50700;55.416;12.952;2023-05-14T00:12:07;7.35;;;3.78;;
64375;SDS011;50700;55.416;12.952;2023-05-14T00:14:33;4.22;;;3.40;;
64375;SDS011;50700;55.416;12.952;2023-05-14T00:16:59;7.28;;;4.43;;
64375;SDS011;50700;55.416;12.952;2023-05-14T00:19:25;7.93;;;3.78;;
64375;SDS011;50700;55.416;12.952;2023-05-14T00:21:51;4.75;;;3.72;;
64375;SDS011;50700;55.416;12.952;2023-05-14T00:24:18;5.88;;;3.97;;
64375;SDS011;50700;55.416;12.952;2023-05-14T00:26:44;5.47;;;3.88;;
64375;SDS011;50700;55.416;12.952;2023-05-14T00:29:10;6.72;;;3.92;;
64375;SDS011;50700;55.416;12.952;2023-05-14T00:31:36;6.70;;;3.83;;
64375;SDS011;50700;55.416;12.952;2023-05-14T00:34:02;4.93;;;4.40;;
64375;SDS011;50700;55.416;12.952;2023-05-14T00:36:29;4.80;;;3.55;;
64375;SDS011;50700;55.416;12.952;2023-05-14T00:38:55;6.07;;;3.10;;
64375;SDS011;50700;55.416;12.952;2023-05-14T00:41:22;9.98;;;4.00;;
64375;SDS011;50700;55.416;12.952;2023-05-14T00:43:48;4.93;;;3.72;;
64375;SDS011;50700;55.416;12.952;2023-05-14T00:46:14;9.00;;;4.00;;
64375;SDS011;50700;55.416;12.952;2023-05-14T00:48:41;5.85;;;3.78;;
64375;SDS011;50700;55.416;12.952;2023-05-14T00:51:07;7.00;;;3.60;;
64375;SDS011;50700;55.416;12.952;2023-05-14T00:53:34;7.60;;;4.18;;
64375;SDS011;50700;55.416;12.952;2023-05-14T00:56:00;7.30;;;4.15;;
64375;SDS011;50700;55.416;12.952;2023-05-14T00:58:27;6.53;;;3.70;;
64375;SDS011;50700;55.416;12.952;2023-05-14T01:00:53;4.93;;;3.70;;
64375;SDS011;50700;55.416;12.952;2023-05-14T01:03:19;8.27;;;3.67;;
64375;SDS011;50700;55.416;12.952;2023-05-14T01:08:59;6.88;;;4.00;;
64375;SDS011;50700;55.416;12.952;2023-05-14T01:11:10;4.38;;;3.92;;
64375;SDS011;50700;55.416;12.952;2023-05-14T01:13:43;6.78;;;4.22;;
64375;SDS011;50700;55.416;12.952;2023-05-14T01:16:12;6.13;;;3.75;;
64375;SDS011;50700;55.416;12.952;2023-05-14T01:18:39;6.30;;;4.18;;
64375;SDS011;50700;55.416;12.952;2023-05-14T01:21:17;13.18;;;5.00;;
64375;SDS011;50700;55.416;12.952;2023-05-14T01:23:43;9.20;;;3.78;;
64375;SDS011;50700;55.416;12.952;2023-05-14T01:26:09;5.88;;;4.18;;
64375;SDS011;50700;55.416;12.952;2023-05-14T01:28:36;5.70;;;4.13;;
64375;SDS011;50700;55.416;12.952;2023-05-14T01:31:13;6.53;;;3.88;;
64375;SDS011;50700;55.416;12.952;2023-05-14T01:33:42;5.38;;;3.83;;
64375;SDS011;50700;55.416;12.952;2023-05-14T01:36:09;10.23;;;4.13;;
64375;SDS011;50700;55.416;12.952;2023-05-14T01:38:36;8.48;;;3.80;;
64375;SDS011;50700;55.416;12.952;2023-05-14T01:41:02;6.75;;;4.18;;
64375;SDS011;50700;55.416;12.952;2023-05-14T01:43:29;5.70;;;4.00;;
64375;SDS011;50700;55.416;12.952;2023-05-14T01:45:56;6.82;;;4.40;;
64375;SDS011;50700;55.416;12.952;2023-05-14T01:48:22;6.38;;;4.07;;
64375;SDS011;50700;55.416;12.952;2023-05-14T01:50:49;6.18;;;4.40;;
64375;SDS011;50700;55.416;12.952;2023-05-14T01:53:15;4.47;;;4.00;;
64375;SDS011;50700;55.416;12.952;2023-05-14T01:55:41;4.38;;;3.95;;
64375;SDS011;50700;55.416;12.952;2023-05-14T01:58:07;5.97;;;3.95;;
64375;SDS011;50700;55.416;12.952;2023-05-14T02:00:34;6.93;;;4.22;;
64375;SDS011;50700;55.416;12.952;2023-05-14T02:03:00;6.80;;;4.63;;
64375;SDS011;50700;55.416;12.952;2023-05-14T02:05:26;9.18;;;4.22;;
64375;SDS011;50700;55.416;12.952;2023-05-14T02:07:53;7.60;;;3.85;;
64375;SDS011;50700;55.416;12.952;2023-05-14T02:10:19;6.13;;;4.18;;
64375;SDS011;50700;55.416;12.952;2023-05-14T02:12:45;5.60;;;3.95;;
64375;SDS011;50700;55.416;12.952;2023-05-14T02:15:11;6.82;;;3.78;;
64375;SDS011;50700;55.416;12.952;2023-05-14T02:17:37;5.85;;;3.90;;
64375;SDS011;50700;55.416;12.952;2023-05-14T02:20:03;10.18;;;4.30;;
64375;SDS011;50700;55.416;12.952;2023-05-14T02:22:30;4.50;;;3.95;;
64375;SDS011;50700;55.416;12.952;2023-05-14T02:24:56;8.07;;;5.32;;
64375;SDS011;50700;55.416;12.952;2023-05-14T02:27:22;6.70;;;4.10;;
64375;SDS011;50700;55.416;12.952;2023-05-14T02:29:48;7.22;;;4.07;;
64375;SDS011;50700;55.416;12.952;2023-05-14T02:32:14;8.80;;;4.72;;
64375;SDS011;50700;55.416;12.952;2023-05-14T02:34:40;6.32;;;4.20;;
64375;SDS011;50700;55.416;12.952;2023-05-14T02:37:07;5.95;;;4.22;;
64375;SDS011;50700;55.416;12.952;2023-05-14T02:39:33;5.90;;;4.32;;
64375;SDS011;50700;55.416;12.952;2023-05-14T02:41:59;8.57;;;4.50;;
64375;SDS011;50700;55.416;12.952;2023-05-14T02:44:25;5.97;;;4.47;;
64375;SDS011;50700;55.416;12.952;2023-05-14T02:46:51;6.22;;;4.20;;
64375;SDS011;50700;55.416;12.952;2023-05-14T02:49:18;7.55;;;4.63;;
64375;SDS011;50700;55.416;12.952;2023-05-14T02:51:44;5.25;;;3.90;;
64375;SDS011;50700;55.416;12.952;2023-05-14T02:54:10;8.68;;;4.78;;
64375;SDS011;50700;55.416;12.952;2023-05-14T02:56:36;5.40;;;3.85;;
64375;SDS011;50700;55.416;12.952;2023-05-14T02:59:03;5.68;;;3.72;;
64375;SDS011;50700;55.416;12.952;2023-05-14T03:01:29;8.35;;;4.03;;
64375;SDS011;50700;55.416;12.952;2023-05-14T03:03:55;5.65;;;3.85;;
64375;SDS011;50700;55.416;12.952;2023-05-14T03:06:21;5.35;;;4.10;;
64375;SDS011;50700;55.416;12.952;2023-05-14T03:08:47;8.27;;;4.32;;
64375;SDS011;50700;55.416;12.952;2023-05-14T03:11:13;6.93;;;4.03;;
64375;SDS011;50700;55.416;12.952;2023-05-14T03:13:40;6.38;;;4.85;;
64375;SDS011;50700;55.416;12.952;2023-05-14T03:16:06;6.75;;;4.78;;
64375;SDS011;50700;55.416;12.952;2023-05-14T03:18:32;7.97;;;4.38;;
64375;SDS011;50700;55.416;12.952;2023-05-14T03:21:00;8.00;;;4.22;;
64375;SDS011;50700;55.416;12.952;2023-05-14T03:23:28;5.07;;;4.38;;
64375;SDS011;50700;55.416;12.952;2023-05-14T03:25:56;9.80;;;4.40;;
64375;SDS011;50700;55.416;12.952;2023-05-14T03:28:22;5.13;;;4.30;;
64375;SDS011;50700;55.416;12.952;2023-05-14T03:30:49;7.15;;;5.00;;
64375;SDS011;50700;55.416;12.952;2023-05-14T03:33:15;5.97;;;4.95;;
64375;SDS011;50700;55.416;12.952;2023-05-14T03:35:41;9.57;;;4.50;;
64375;SDS011;50700;55.416;12.952;2023-05-14T03:38:07;11.52;;;6.07;;
64375;SDS011;50700;55.416;12.952;2023-05-14T03:40:33;5.38;;;4.00;;
64375;SDS011;50700;55.416;12.952;2023-05-14T03:43:00;6.90;;;4.10;;
64375;SDS011;50700;55.416;12.952;2023-05-14T03:45:26;5.78;;;4.32;;
64375;SDS011;50700;55.416;12.952;2023-05-14T03:47:54;9.13;;;4.22;;
64375;SDS011;50700;55.416;12.952;2023-05-14T03:50:20;7.25;;;4.78;;
64375;SDS011;50700;55.416;12.952;2023-05-14T03:52:50;7.10;;;4.50;;
64375;SDS011;50700;55.416;12.952;2023-05-14T03:55:18;7.28;;;4.13;;
64375;SDS011;50700;55.416;12.952;2023-05-14T03:57:44;6.90;;;4.45;;
64375;SDS011;50700;55.416;12.952;2023-05-14T04:00:10;10.30;;;5.15;;
64375;SDS011;50700;55.416;12.952;2023-05-14T04:02:37;8.57;;;4.72;;
64375;SDS011;50700;55.416;12.952;2023-05-14T04:05:03;5.88;;;4.28;;
64375;SDS011;50700;55.416;12.952;2023-05-14T04:07:29;4.95;;;4.03;;
64375;SDS011;50700;55.416;12.952;2023-05-14T04:09:55;6.35;;;4.05;;
64375;SDS011;50700;55.416;12.952;2023-05-14T04:12:22;6.70;;;3.92;;
64375;SDS011;50700;55.416;12.952;2023-05-14T04:14:48;10.18;;;4.80;;
64375;SDS011;50700;55.416;12.952;2023-05-14T04:17:14;5.47;;;3.72;;
64375;SDS011;50700;55.416;12.952;2023-05-14T04:19:40;7.70;;;4.10;;
64375;SDS011;50700;55.416;12.952;2023-05-14T04:22:06;6.53;;;4.70;;
64375;SDS011;50700;55.416;12.952;2023-05-14T04:24:33;5.63;;;4.05;;
64375;SDS011;50700;55.416;12.952;2023-05-14T04:26:59;6.68;;;4.68;;
64375;SDS011;50700;55.416;12.952;2023-05-14T04:29:25;7.22;;;4.68;;
64375;SDS011;50700;55.416;12.952;2023-05-14T04:31:51;9.23;;;4.40;;
64375;SDS011;50700;55.416;12.952;2023-05-14T04:34:17;6.97;;;4.43;;
64375;SDS011;50700;55.416;12.952;2023-05-14T04:36:44;6.57;;;4.43;;
64375;SDS011;50700;55.416;12.952;2023-05-14T04:39:10;7.32;;;4.00;;
64375;SDS011;50700;55.416;12.952;2023-05-14T04:41:37;9.70;;;4.60;;
64375;SDS011;50700;55.416;12.952;2023-05-14T04:44:03;5.22;;;4.15;;
64375;SDS011;50700;55.416;12.952;2023-05-14T04:46:29;7.07;;;4.47;;
64375;SDS011;50700;55.416;12.952;2023-05-14T04:48:55;9.95;;;4.85;;
64375;SDS011;50700;55.416;12.952;2023-05-14T04:51:22;10.05;;;4.68;;
64375;SDS011;50700;55.416;12.952;2023-05-14T04:53:48;7.68;;;4.18;;
64375;SDS011;50700;55.416;12.952;2023-05-14T04:56:14;7.68;;;4.40;;
64375;SDS011;50700;55.416;12.952;2023-05-14T04:58:41;6.43;;;4.28;;
64375;SDS011;50700;55.416;12.952;2023-05-14T05:01:07;5.90;;;4.15;;
64375;SDS011;50700;55.416;12.952;2023-05-14T05:03:33;6.65;;;4.55;;
64375;SDS011;50700;55.416;12.952;2023-05-14T05:05:59;7.07;;;4.05;;
64375;SDS011;50700;55.416;12.952;2023-05-14T05:08:26;5.75;;;4.40;;
64375;SDS011;50700;55.416;12.952;2023-05-14T05:10:52;8.10;;;5.05;;
64375;SDS011;50700;55.416;12.952;2023-05-14T05:13:18;10.43;;;4.93;;
64375;SDS011;50700;55.416;12.952;2023-05-14T05:15:44;5.75;;;4.53;;
64375;SDS011;50700;55.416;12.952;2023-05-14T05:18:10;8.45;;;4.60;;
64375;SDS011;50700;55.416;12.952;2023-05-14T05:20:36;6.50;;;4.75;;
64375;SDS011;50700;55.416;12.952;2023-05-14T05:23:02;4.90;;;3.85;;
64375;SDS011;50700;55.416;12.952;2023-05-14T05:25:29;7.10;;;4.63;;
64375;SDS011;50700;55.416;12.952;2023-05-14T05:27:55;6.20;;;3.92;;
64375;SDS011;50700;55.416;12.952;2023-05-14T05:30:21;6.20;;;4.45;;
64375;SDS011;50700;55.416;12.952;2023-05-14T05:32:47;6.80;;;4.32;;
64375;SDS011;50700;55.416;12.952;2023-05-14T05:35:13;8.75;;;4.45;;
64375;SDS011;50700;55.416;12.952;2023-05-14T05:37:41;7.47;;;4.80;;
64375;SDS011;50700;55.416;12.952;2023-05-14T05:40:09;6.32;;;4.30;;
64375;SDS011;50700;55.416;12.952;2023-05-14T05:42:38;8.40;;;4.38;;
64375;SDS011;50700;55.416;12.952;2023-05-14T05:45:04;7.78;;;4.40;;
64375;SDS011;50700;55.416;12.952;2023-05-14T05:47:30;6.10;;;4.30;;
64375;SDS011;50700;55.416;12.952;2023-05-14T05:49:56;6.10;;;4.20;;
64375;SDS011;50700;55.416;12.952;2023-05-14T05:52:23;7.40;;;4.10;;
64375;SDS011;50700;55.416;12.952;2023-05-14T05:54:49;7.18;;;4.68;;
64375;SDS011;50700;55.416;12.952;2023-05-14T05:57:15;7.13;;;4.47;;
64375;SDS011;50700;55.416;12.952;2023-05-14T05:59:42;7.13;;;4.35;;
64375;SDS011;50700;55.416;12.952;2023-05-14T06:02:08;7.03;;;4.43;;
64375;SDS011;50700;55.416;12.952;2023-05-14T06:04:34;6.32;;;4.28;;
64375;SDS011;50700;55.416;12.952;2023-05-14T06:07:00;7.75;;;4.80;;
64375;SDS011;50700;55.416;12.952;2023-05-14T06:09:27;5.57;;;4.40;;
64375;SDS011;50700;55.416;12.952;2023-05-14T06:11:53;8.73;;;4.10;;
64375;SDS011;50700;55.416;12.952;2023-05-14T06:14:19;11.82;;;4.97;;
64375;SDS011;50700;55.416;12.952;2023-05-14T06:16:45;7.20;;;4.28;;
64375;SDS011;50700;55.416;12.952;2023-05-14T06:19:11;4.90;;;4.20;;
64375;SDS011;50700;55.416;12.952;2023-05-14T06:21:38;9.73;;;4.82;;
64375;SDS011;50700;55.416;12.952;2023-05-14T06:24:04;7.45;;;4.18;;
64375;SDS011;50700;55.416;12.952;2023-05-14T06:26:30;12.02;;;4.40;;
64375;SDS011;50700;55.416;12.952;2023-05-14T06:28:56;6.40;;;4.68;;
64375;SDS011;50700;55.416;12.952;2023-05-14T06:31:23;8.68;;;4.90;;
64375;SDS011;50700;55.416;12.952;2023-05-14T06:33:49;4.88;;;4.30;;
64375;SDS011;50700;55.416;12.952;2023-05-14T06:36:15;4.30;;;3.90;;
64375;SDS011;50700;55.416;12.952;2023-05-14T06:38:41;5.50;;;4.32;;
64375;SDS011;50700;55.416;12.952;2023-05-14T06:41:08;5.60;;;4.32;;
64375;SDS011;50700;55.416;12.952;2023-05-14T06:43:34;7.38;;;4.50;;
64375;SDS011;50700;55.416;12.952;2023-05-14T06:46:00;7.63;;;4.85;;
64375;SDS011;50700;55.416;12.952;2023-05-14T06:48:26;7.10;;;4.35;;
64375;SDS011;50700;55.416;12.952;2023-05-14T06:50:53;4.75;;;4.00;;
64375;SDS011;50700;55.416;12.952;2023-05-14T06:53:20;8.55;;;4.18;;
64375;SDS011;50700;55.416;12.952;2023-05-14T06:55:46;8.15;;;4.30;;
64375;SDS011;50700;55.416;12.952;2023-05-14T06:58:13;7.97;;;4.40;;
64375;SDS011;50700;55.416;12.952;2023-05-14T07:00:39;5.95;;;4.30;;
64375;SDS011;50700;55.416;12.952;2023-05-14T07:03:05;6.88;;;4.90;;
64375;SDS011;50700;55.416;12.952;2023-05-14T07:05:31;9.70;;;4.35;;
64375;SDS011;50700;55.416;12.952;2023-05-14T07:07:58;5.95;;;4.43;;
64375;SDS011;50700;55.416;12.952;2023-05-14T07:10:24;7.50;;;4.50;;
64375;SDS011;50700;55.416;12.952;2023-05-14T07:12:50;5.82;;;4.55;;
64375;SDS011;50700;55.416;12.952;2023-05-14T07:15:16;7.25;;;4.70;;
64375;SDS011;50700;55.416;12.952;2023-05-14T07:17:42;22.35;;;7.00;;
64375;SDS011;50700;55.416;12.952;2023-05-14T07:20:08;8.77;;;4.10;;
64375;SDS011;50700;55.416;12.952;2023-05-14T07:22:35;5.43;;;4.20;;
64375;SDS011;50700;55.416;12.952;2023-05-14T07:25:01;6.38;;;4.70;;
64375;SDS011;50700;55.416;12.952;2023-05-14T07:27:27;8.07;;;4.18;;
64375;SDS011;50700;55.416;12.952;2023-05-14T07:29:53;7.55;;;5.68;;
64375;SDS011;50700;55.416;12.952;2023-05-14T07:32:20;7.40;;;4.00;;
64375;SDS011;50700;55.416;12.952;2023-05-14T07:34:46;6.93;;;4.72;;
64375;SDS011;50700;55.416;12.952;2023-05-14T07:37:12;9.77;;;4.30;;
64375;SDS011;50700;55.416;12.952;2023-05-14T07:39:39;5.65;;;4.22;;
64375;SDS011;50700;55.416;12.952;2023-05-14T07:42:05;5.90;;;4.55;;
64375;SDS011;50700;55.416;12.952;2023-05-14T07:44:32;5.50;;;4.90;;
64375;SDS011;50700;55.416;12.952;2023-05-14T07:46:58;6.82;;;4.60;;
64375;SDS011;50700;55.416;12.952;2023-05-14T07:49:24;7.07;;;4.05;;
64375;SDS011;50700;55.416;12.952;2023-05-14T07:51:50;8.07;;;4.57;;
64375;SDS011;50700;55.416;12.952;2023-05-14T07:54:16;6.45;;;3.92;;
64375;SDS011;50700;55.416;12.952;2023-05-14T07:56:43;6.35;;;4.20;;
64375;SDS011;50700;55.416;12.952;2023-05-14T07:59:09;4.65;;;3.78;;
64375;SDS011;50700;55.416;12.952;2023-05-14T08:01:35;7.18;;;4.47;;
64375;SDS011;50700;55.416;12.952;2023-05-14T08:04:01;8.30;;;4.70;;
64375;SDS011;50700;55.416;12.952;2023-05-14T08:06:27;8.25;;;4.50;;
64375;SDS011;50700;55.416;12.952;2023-05-14T08:08:54;6.75;;;4.70;;
64375;SDS011;50700;55.416;12.952;2023-05-14T08:11:20;7.55;;;4.20;;
64375;SDS011;50700;55.416;12.952;2023-05-14T08:13:46;5.05;;;4.03;;
64375;SDS011;50700;55.416;12.952;2023-05-14T08:16:12;6.00;;;4.72;;
64375;SDS011;50700;55.416;12.952;2023-05-14T08:18:39;9.10;;;4.45;;
64375;SDS011;50700;55.416;12.952;2023-05-14T08:21:05;7.45;;;4.45;;
64375;SDS011;50700;55.416;12.952;2023-05-14T08:23:31;10.27;;;4.25;;
64375;SDS011;50700;55.416;12.952;2023-05-14T08:25:57;7.30;;;4.40;;
64375;SDS011;50700;55.416;12.952;2023-05-14T08:28:24;5.85;;;3.85;;
64375;SDS011;50700;55.416;12.952;2023-05-14T08:30:50;4.78;;;4.22;;
64375;SDS011;50700;55.416;12.952;2023-05-14T08:33:16;8.50;;;4.38;;
64375;SDS011;50700;55.416;12.952;2023-05-14T08:35:43;7.90;;;5.38;;
64375;SDS011;50700;55.416;12.952;2023-05-14T08:38:09;5.75;;;4.50;;
64375;SDS011;50700;55.416;12.952;2023-05-14T08:40:35;7.32;;;3.80;;
64375;SDS011;50700;55.416;12.952;2023-05-14T08:43:01;7.95;;;4.80;;
64375;SDS011;50700;55.416;12.952;2023-05-14T08:45:28;6.65;;;4.82;;
64375;SDS011;50700;55.416;12.952;2023-05-14T08:47:58;8.95;;;4.70;;
64375;SDS011;50700;55.416;12.952;2023-05-14T08:50:30;9.27;;;4.55;;
64375;SDS011;50700;55.416;12.952;2023-05-14T08:52:56;9.88;;;4.63;;
64375;SDS011;50700;55.416;12.952;2023-05-14T08:55:22;9.20;;;4.47;;
64375;SDS011;50700;55.416;12.952;2023-05-14T08:57:50;6.28;;;4.75;;
64375;SDS011;50700;55.416;12.952;2023-05-14T09:00:16;8.65;;;4.93;;
64375;SDS011;50700;55.416;12.952;2023-05-14T09:02:43;7.80;;;5.40;;
64375;SDS011;50700;55.416;12.952;2023-05-14T09:05:09;6.38;;;4.88;;
64375;SDS011;50700;55.416;12.952;2023-05-14T09:07:36;7.93;;;4.80;;
64375;SDS011;50700;55.416;12.952;2023-05-14T09:10:02;6.53;;;4.88;;
64375;SDS011;50700;55.416;12.952;2023-05-14T09:12:29;6.47;;;4.95;;
64375;SDS011;50700;55.416;12.952;2023-05-14T09:14:55;6.55;;;4.60;;
64375;SDS011;50700;55.416;12.952;2023-05-14T09:17:21;5.57;;;4.15;;
64375;SDS011;50700;55.416;12.952;2023-05-14T09:19:50;7.18;;;5.13;;
64375;SDS011;50700;55.416;12.952;2023-05-14T09:22:17;7.07;;;4.63;;
64375;SDS011;50700;55.416;12.952;2023-05-14T09:24:43;5.85;;;4.45;;
64375;SDS011;50700;55.416;12.952;2023-05-14T09:27:19;11.27;;;5.28;;
64375;SDS011;50700;55.416;12.952;2023-05-14T09:29:46;7.43;;;5.68;;
64375;SDS011;50700;55.416;12.952;2023-05-14T09:32:12;7.50;;;5.78;;
64375;SDS011;50700;55.416;12.952;2023-05-14T09:34:39;7.38;;;5.05;;
64375;SDS011;50700;55.416;12.952;2023-05-14T09:37:06;8.70;;;5.55;;
64375;SDS011;50700;55.416;12.952;2023-05-14T09:39:33;9.35;;;5.18;;
64375;SDS011;50700;55.416;12.952;2023-05-14T09:42:00;10.13;;;6.13;;
64375;SDS011;50700;55.416;12.952;2023-05-14T09:44:27;7.70;;;5.95;;
64375;SDS011;50700;55.416;12.952;2023-05-14T09:46:53;7.85;;;6.15;;
64375;SDS011;50700;55.416;12.952;2023-05-14T09:49:20;10.52;;;5.80;;
64375;SDS011;50700;55.416;12.952;2023-05-14T09:51:47;9.18;;;5.47;;
64375;SDS011;50700;55.416;12.952;2023-05-14T09:54:13;10.82;;;5.47;;
64375;SDS011;50700;55.416;12.952;2023-05-14T09:56:42;9.68;;;6.20;;
64375;SDS011;50700;55.416;12.952;2023-05-14T09:59:09;10.85;;;5.95;;
64375;SDS011;50700;55.416;12.952;2023-05-14T10:01:35;9.00;;;5.75;;
64375;SDS011;50700;55.416;12.952;2023-05-14T10:04:02;7.90;;;5.82;;
64375;SDS011;50700;55.416;12.952;2023-05-14T10:06:32;8.45;;;5.78;;
64375;SDS011;50700;55.416;12.952;2023-05-14T10:09:02;9.38;;;5.72;;
64375;SDS011;50700;55.416;12.952;2023-05-14T10:11:33;14.38;;;6.13;;
64375;SDS011;50700;55.416;12.952;2023-05-14T10:14:05;9.55;;;6.28;;
64375;SDS011;50700;55.416;12.952;2023-05-14T10:16:33;7.32;;;5.90;;
64375;SDS011;50700;55.416;12.952;2023-05-14T10:19:00;8.73;;;6.30;;
64375;SDS011;50700;55.416;12.952;2023-05-14T10:21:28;9.73;;;5.78;;
64375;SDS011;50700;55.416;12.952;2023-05-14T10:23:56;8.55;;;5.50;;
64375;SDS011;50700;55.416;12.952;2023-05-14T10:26:22;8.68;;;6.18;;
64375;SDS011;50700;55.416;12.952;2023-05-14T10:28:49;7.68;;;5.43;;
64375;SDS011;50700;55.416;12.952;2023-05-14T10:31:15;7.47;;;5.50;;
64375;SDS011;50700;55.416;12.952;2023-05-14T10:33:45;8.40;;;5.68;;
64375;SDS011;50700;55.416;12.952;2023-05-14T10:36:13;7.82;;;5.75;;
64375;SDS011;50700;55.416;12.952;2023-05-14T10:38:39;8.23;;;6.25;;
64375;SDS011;50700;55.416;12.952;2023-05-14T10:43:39;10.10;;;5.88;;
64375;SDS011;50700;55.416;12.952;2023-05-14T10:46:06;7.60;;;5.68;;
64375;SDS011;50700;55.416;12.952;2023-05-14T10:48:33;8.63;;;5.97;;
64375;SDS011;50700;55.416;12.952;2023-05-14T10:50:59;6.57;;;5.80;;
64375;SDS011;50700;55.416;12.952;2023-05-14T10:53:36;7.95;;;6.80;;
64375;SDS011;50700;55.416;12.952;2023-05-14T10:56:03;10.05;;;6.68;;
64375;SDS011;50700;55.416;12.952;2023-05-14T10:58:30;8.10;;;5.47;;
64375;SDS011;50700;55.416;12.952;2023-05-14T11:00:58;8.57;;;5.60;;
64375;SDS011;50700;55.416;12.952;2023-05-14T11:03:28;10.70;;;5.63;;
64375;SDS011;50700;55.416;12.952;2023-05-14T11:05:55;9.30;;;5.68;;
64375;SDS011;50700;55.416;12.952;2023-05-14T11:08:22;7.45;;;5.45;;
64375;SDS011;50700;55.416;12.952;2023-05-14T11:10:53;10.32;;;6.68;;
64375;SDS011;50700;55.416;12.952;2023-05-14T11:13:20;8.27;;;6.00;;
64375;SDS011;50700;55.416;12.952;2023-05-14T11:15:47;6.43;;;5.72;;
64375;SDS011;50700;55.416;12.952;2023-05-14T11:18:24;8.45;;;5.97;;
64375;SDS011;50700;55.416;12.952;2023-05-14T11:20:52;10.10;;;5.75;;
64375;SDS011;50700;55.416;12.952;2023-05-14T11:23:19;10.85;;;6.30;;
64375;SDS011;50700;55.416;12.952;2023-05-14T11:25:46;11.10;;;5.70;;
64375;SDS011;50700;55.416;12.952;2023-05-14T11:28:12;7.60;;;5.93;;
64375;SDS011;50700;55.416;12.952;2023-05-14T11:30:38;7.85;;;5.78;;
64375;SDS011;50700;55.416;12.952;2023-05-14T11:33:04;7.15;;;5.40;;
64375;SDS011;50700;55.416;12.952;2023-05-14T11:35:30;7.82;;;5.03;;
64375;SDS011;50700;55.416;12.952;2023-05-14T11:37:57;7.20;;;5.15;;
64375;SDS011;50700;55.416;12.952;2023-05-14T11:40:23;6.63;;;5.30;;
64375;SDS011;50700;55.416;12.952;2023-05-14T11:42:52;7.72;;;5.53;;
64375;SDS011;50700;55.416;12.952;2023-05-14T11:45:24;8.65;;;6.07;;
64375;SDS011;50700;55.416;12.952;2023-05-14T11:50:17;7.30;;;6.18;;
64375;SDS011;50700;55.416;12.952;2023-05-14T11:52:44;7.68;;;5.80;;
64375;SDS011;50700;55.416;12.952;2023-05-14T11:55:12;9.82;;;6.45;;
64375;SDS011;50700;55.416;12.952;2023-05-14T11:57:38;11.20;;;7.05;;
64375;SDS011;50700;55.416;12.952;2023-05-14T12:00:08;9.48;;;7.13;;
64375;SDS011;50700;55.416;12.952;2023-05-14T12:02:38;9.82;;;6.63;;
64375;SDS011;50700;55.416;12.952;2023-05-14T12:05:05;8.38;;;6.07;;
64375;SDS011;50700;55.416;12.952;2023-05-14T12:07:31;12.13;;;7.28;;
64375;SDS011;50700;55.416;12.952;2023-05-14T12:09:59;7.97;;;6.13;;
64375;SDS011;50700;55.416;12.952;2023-05-14T12:12:26;8.23;;;5.28;;
64375;SDS011;50700;55.416;12.952;2023-05-14T12:14:52;10.50;;;5.60;;
64375;SDS011;50700;55.416;12.952;2023-05-14T12:17:19;6.28;;;5.13;;
64375;SDS011;50700;55.416;12.952;2023-05-14T12:19:49;6.32;;;4.80;;
64375;SDS011;50700;55.416;12.952;2023-05-14T12:22:16;7.55;;;5.18;;
64375;SDS011;50700;55.416;12.952;2023-05-14T12:24:46;6.25;;;4.75;;
64375;SDS011;50700;55.416;12.952;2023-05-14T12:27:20;5.18;;;4.63;;
64375;SDS011;50700;55.416;12.952;2023-05-14T12:29:46;4.65;;;4.10;;
64375;SDS011;50700;55.416;12.952;2023-05-14T12:32:13;7.32;;;4.90;;
64375;SDS011;50700;55.416;12.952;2023-05-14T12:34:39;7.63;;;4.78;;
64375;SDS011;50700;55.416;12.952;2023-05-14T12:37:05;8.13;;;5.00;;
64375;SDS011;50700;55.416;12.952;2023-05-14T12:39:32;6.63;;;4.60;;
64375;SDS011;50700;55.416;12.952;2023-05-14T12:41:58;7.35;;;4.60;;
64375;SDS011;50700;55.416;12.952;2023-05-14T12:44:25;10.80;;;5.35;;
64375;SDS011;50700;55.416;12.952;2023-05-14T12:46:51;6.82;;;4.45;;
64375;SDS011;50700;55.416;12.952;2023-05-14T12:49:18;9.60;;;4.78;;
64375;SDS011;50700;55.416;12.952;2023-05-14T12:51:44;8.48;;;4.03;;
64375;SDS011;50700;55.416;12.952;2023-05-14T12:54:11;5.07;;;4.57;;
64375;SDS011;50700;55.416;12.952;2023-05-14T12:56:37;7.32;;;4.30;;
64375;SDS011;50700;55.416;12.952;2023-05-14T12:59:04;6.57;;;4.55;;
64375;SDS011;50700;55.416;12.952;2023-05-14T13:01:30;6.78;;;4.65;;
64375;SDS011;50700;55.416;12.952;2023-05-14T13:03:56;5.03;;;4.35;;
64375;SDS011;50700;55.416;12.952;2023-05-14T13:06:23;6.50;;;4.43;;
64375;SDS011;50700;55.416;12.952;2023-05-14T13:08:50;7.45;;;4.10;;
64375;SDS011;50700;55.416;12.952;2023-05-14T13:11:16;4.85;;;4.10;;
64375;SDS011;50700;55.416;12.952;2023-05-14T13:13:42;5.82;;;4.55;;
64375;SDS011;50700;55.416;12.952;2023-05-14T13:16:08;5.85;;;4.00;;
64375;SDS011;50700;55.416;12.952;2023-05-14T13:18:35;8.00;;;4.40;;
64375;SDS011;50700;55.416;12.952;2023-05-14T13:21:02;7.53;;;4.70;;
64375;SDS011;50700;55.416;12.952;2023-05-14T13:23:30;7.85;;;4.22;;
64375;SDS011;50700;55.416;12.952;2023-05-14T13:25:56;6.75;;;4.78;;
64375;SDS011;50700;55.416;12.952;2023-05-14T13:28:22;5.32;;;4.20;;
64375;SDS011;50700;55.416;12.952;2023-05-14T13:33:31;4.43;;;3.90;;
64375;SDS011;50700;55.416;12.952;2023-05-14T13:35:57;6.57;;;4.72;;
64375;SDS011;50700;55.416;12.952;2023-05-14T13:38:23;5.65;;;4.63;;
64375;SDS011;50700;55.416;12.952;2023-05-14T13:40:49;7.50;;;3.67;;
64375;SDS011;50700;55.416;12.952;2023-05-14T13:43:15;5.63;;;4.55;;
64375;SDS011;50700;55.416;12.952;2023-05-14T13:45:42;6.28;;;4.53;;
64375;SDS011;50700;55.416;12.952;2023-05-14T13:48:08;8.88;;;4.57;;
64375;SDS011;50700;55.416;12.952;2023-05-14T13:50:34;5.32;;;4.53;;
64375;SDS011;50700;55.416;12.952;2023-05-14T13:53:00;5.60;;;4.20;;
64375;SDS011;50700;55.416;12.952;2023-05-14T13:55:26;6.93;;;4.20;;
64375;SDS011;50700;55.416;12.952;2023-05-14T13:57:53;6.18;;;4.50;;
64375;SDS011;50700;55.416;12.952;2023-05-14T14:00:19;6.85;;;4.68;;
64375;SDS011;50700;55.416;12.952;2023-05-14T14:02:45;8.55;;;4.78;;
64375;SDS011;50700;55.416;12.952;2023-05-14T14:05:11;8.52;;;4.40;;
64375;SDS011;50700;55.416;12.952;2023-05-14T14:07:38;5.97;;;5.13;;
64375;SDS011;50700;55.416;12.952;2023-05-14T14:10:04;6.50;;;4.82;;
64375;SDS011;50700;55.416;12.952;2023-05-14T14:12:31;5.85;;;4.55;;
64375;SDS011;50700;55.416;12.952;2023-05-14T14:14:57;7.88;;;4.85;;
64375;SDS011;50700;55.416;12.952;2023-05-14T14:17:23;10.85;;;4.90;;
64375;SDS011;50700;55.416;12.952;2023-05-14T14:19:51;6.75;;;5.18;;
64375;SDS011;50700;55.416;12.952;2023-05-14T14:22:18;9.55;;;4.78;;
64375;SDS011;50700;55.416;12.952;2023-05-14T14:24:44;8.00;;;5.15;;
64375;SDS011;50700;55.416;12.952;2023-05-14T14:27:10;8.13;;;4.88;;
64375;SDS011;50700;55.416;12.952;2023-05-14T14:29:36;11.13;;;7.15;;
64375;SDS011;50700;55.416;12.952;2023-05-14T14:32:02;7.07;;;4.82;;
64375;SDS011;50700;55.416;12.952;2023-05-14T14:34:29;7.15;;;5.00;;
64375;SDS011;50700;55.416;12.952;2023-05-14T14:36:55;5.28;;;4.53;;
64375;SDS011;50700;55.416;12.952;2023-05-14T14:39:21;7.38;;;5.15;;
64375;SDS011;50700;55.416;12.952;2023-05-14T14:41:49;7.88;;;4.30;;